PWSweather.com
Personal Weather Stations
Station Observations
KC4KQE
Superstition Mountains, Apache Junction, AZ 85119

Superstition MountainsApache Junction, AZ 85119

Lat: 33.41578, Lon: -111.49328

Elevation: 1850

Station Type: Davis Vantage Pro2 Plus

http://kc4kqe.org/

Latest ConditionsUpdated 8:50:05 AM MST Thursday, Oct 30, 2014
Currently Today's Max Today's Min Today's Average
Temperature 73.7°F23.2°C 73.7°F23.2°C 56.2°F13.4°C 61.2°F16.2°C
Dew Point 46.4°F8.0°C 47.9°F8.8°C 39.4°F4.1°C 41.5°F5.3°C
Winds Calm Calm 5.0 mph E8.0 kmh E - 0.6 mph 1.0 kmh
Wind Gusts 1.0 mph1.6 kmh 5.0 mph8.0 kmh - -
Humidity 38% 57% 33% 49%
Pressure 30.03 in1016.9 mb 30.03 in1016.9 mb 29.97 in1014.9 mb -
Hour Temp Dew Point Humidity Winds Wind Gusts Pressure Precip Precip Rate Daily Precip Total
08:50 AM 73.7°F23.2°C 46.4°F8.0°C 38% Calm Calm 1.0 mph1.6 kmh 30.03 in1016.9 mb 0.00 in0.0 mm 0.00 in/hr0.0 mm/hr 0.00 in0.0 mm
08:45 AM 72.5°F22.5°C 43.2°F6.2°C 35% Calm Calm 1.0 mph1.6 kmh 30.03 in1016.9 mb 0.00 in0.0 mm 0.00 in/hr0.0 mm/hr 0.00 in0.0 mm
08:40 AM 72.1°F22.3°C 42.1°F5.6°C 34% Calm Calm 1.0 mph1.6 kmh 30.03 in1016.9 mb 0.00 in0.0 mm 0.00 in/hr0.0 mm/hr 0.00 in0.0 mm
08:35 AM 71.5°F21.9°C 40.8°F4.9°C 33% Calm Calm 1.0 mph1.6 kmh 30.03 in1016.9 mb 0.00 in0.0 mm 0.00 in/hr0.0 mm/hr 0.00 in0.0 mm
08:30 AM 70.2°F21.2°C 44.0°F6.7°C 39% Calm Calm 1.0 mph1.6 kmh 30.03 in1016.9 mb 0.00 in0.0 mm 0.00 in/hr0.0 mm/hr 0.00 in0.0 mm
08:25 AM 68.7°F20.4°C 46.4°F8.0°C 45% Calm Calm 1.0 mph1.6 kmh 30.03 in1016.9 mb 0.00 in0.0 mm 0.00 in/hr0.0 mm/hr 0.00 in0.0 mm
08:20 AM 67.8°F19.9°C 47.3°F8.5°C 48% Calm Calm 2.0 mph3.2 kmh 30.03 in1016.9 mb 0.00 in0.0 mm 0.00 in/hr0.0 mm/hr 0.00 in0.0 mm
08:15 AM 67.0°F19.4°C 46.6°F8.1°C 48% Calm Calm 1.0 mph1.6 kmh 30.03 in1016.9 mb 0.00 in0.0 mm 0.00 in/hr0.0 mm/hr 0.00 in0.0 mm
08:10 AM 66.5°F19.2°C 46.1°F7.8°C 48% Calm Calm 1.0 mph1.6 kmh 30.03 in1016.9 mb 0.00 in0.0 mm 0.00 in/hr0.0 mm/hr 0.00 in0.0 mm
08:05 AM 65.8°F18.8°C 44.4°F6.9°C 46% 1.0 mph ENE1.6 kmh ENE 2.0 mph3.2 kmh 30.02 in1016.6 mb 0.00 in0.0 mm 0.00 in/hr0.0 mm/hr 0.00 in0.0 mm
08:00 AM 64.6°F18.1°C 45.0°F7.2°C 49% Calm Calm 1.0 mph1.6 kmh 30.02 in1016.6 mb 0.00 in0.0 mm 0.00 in/hr0.0 mm/hr 0.00 in0.0 mm
07:55 AM 64.0°F17.8°C 47.9°F8.8°C 56% Calm Calm 1.0 mph1.6 kmh 30.02 in1016.6 mb 0.00 in0.0 mm 0.00 in/hr0.0 mm/hr 0.00 in0.0 mm
07:50 AM 62.9°F17.2°C 44.4°F6.9°C 51% Calm Calm 2.0 mph3.2 kmh 30.02 in1016.6 mb 0.00 in0.0 mm 0.00 in/hr0.0 mm/hr 0.00 in0.0 mm
07:45 AM 62.2°F16.8°C 45.3°F7.4°C 54% 2.0 mph ENE3.2 kmh ENE 2.0 mph3.2 kmh 30.02 in1016.6 mb 0.00 in0.0 mm 0.00 in/hr0.0 mm/hr 0.00 in0.0 mm
07:40 AM 61.7°F16.5°C 44.8°F7.1°C 54% 1.0 mph ENE1.6 kmh ENE 2.0 mph3.2 kmh 30.02 in1016.6 mb 0.00 in0.0 mm 0.00 in/hr0.0 mm/hr 0.00 in0.0 mm
07:35 AM 61.1°F16.2°C 43.8°F6.6°C 53% 1.0 mph ENE1.6 kmh ENE 2.0 mph3.2 kmh 30.02 in1016.6 mb 0.00 in0.0 mm 0.00 in/hr0.0 mm/hr 0.00 in0.0 mm
07:30 AM 60.8°F16.0°C 44.0°F6.7°C 54% 1.0 mph ENE1.6 kmh ENE 2.0 mph3.2 kmh 30.02 in1016.6 mb 0.00 in0.0 mm 0.00 in/hr0.0 mm/hr 0.00 in0.0 mm
07:25 AM 60.2°F15.7°C 41.4°F5.2°C 50% Calm Calm 3.0 mph4.8 kmh 30.01 in1016.3 mb 0.00 in0.0 mm 0.00 in/hr0.0 mm/hr 0.00 in0.0 mm
07:20 AM 58.6°F14.8°C 42.0°F5.6°C 54% 2.0 mph NE3.2 kmh NE 2.0 mph3.2 kmh 30.01 in1016.3 mb 0.00 in0.0 mm 0.00 in/hr0.0 mm/hr 0.00 in0.0 mm
07:15 AM 57.9°F14.4°C 41.3°F5.2°C 54% 2.0 mph N3.2 kmh N 2.0 mph3.2 kmh 30.01 in1016.3 mb 0.00 in0.0 mm 0.00 in/hr0.0 mm/hr 0.00 in0.0 mm
07:10 AM 57.0°F13.9°C 40.9°F4.9°C 55% Calm Calm 1.0 mph1.6 kmh 30.02 in1016.6 mb 0.00 in0.0 mm 0.00 in/hr0.0 mm/hr 0.00 in0.0 mm
07:05 AM 56.2°F13.4°C 41.1°F5.1°C 57% 1.0 mph E1.6 kmh E 1.0 mph1.6 kmh 30.01 in1016.3 mb 0.00 in0.0 mm 0.00 in/hr0.0 mm/hr 0.00 in0.0 mm
07:00 AM 56.2°F13.4°C 41.1°F5.1°C 57% Calm Calm 2.0 mph3.2 kmh 30.01 in1016.3 mb 0.00 in0.0 mm 0.00 in/hr0.0 mm/hr 0.00 in0.0 mm
06:55 AM 56.3°F13.5°C 40.8°F4.9°C 56% 1.0 mph E1.6 kmh E 3.0 mph4.8 kmh 30.01 in1016.3 mb 0.00 in0.0 mm 0.00 in/hr0.0 mm/hr 0.00 in0.0 mm
06:50 AM 56.4°F13.6°C 40.8°F4.9°C 56% Calm Calm 2.0 mph3.2 kmh 30.01 in1016.3 mb 0.00 in0.0 mm 0.00 in/hr0.0 mm/hr 0.00 in0.0 mm
06:45 AM 56.6°F13.7°C 41.0°F5.0°C 56% 1.0 mph E1.6 kmh E 2.0 mph3.2 kmh 30.01 in1016.3 mb 0.00 in0.0 mm 0.00 in/hr0.0 mm/hr 0.00 in0.0 mm
06:40 AM 56.7°F13.7°C 41.6°F5.3°C 57% Calm Calm 2.0 mph3.2 kmh 30.00 in1015.9 mb 0.00 in0.0 mm 0.00 in/hr0.0 mm/hr 0.00 in0.0 mm
06:35 AM 56.8°F13.8°C 41.7°F5.4°C 57% 1.0 mph E1.6 kmh E 2.0 mph3.2 kmh 30.00 in1015.9 mb 0.00 in0.0 mm 0.00 in/hr0.0 mm/hr 0.00 in0.0 mm
06:30 AM 56.9°F13.8°C 41.8°F5.4°C 57% Calm Calm -- 30.00 in1015.9 mb 0.00 in0.0 mm 0.00 in/hr0.0 mm/hr 0.00 in0.0 mm
06:25 AM 57.0°F13.9°C 41.4°F5.2°C 56% Calm Calm -- 30.00 in1015.9 mb 0.00 in0.0 mm 0.00 in/hr0.0 mm/hr 0.00 in0.0 mm
06:20 AM 57.1°F13.9°C 41.5°F5.3°C 56% Calm Calm 1.0 mph1.6 kmh 30.00 in1015.9 mb 0.00 in0.0 mm 0.00 in/hr0.0 mm/hr 0.00 in0.0 mm
06:15 AM 57.1°F13.9°C 41.5°F5.3°C 56% 2.0 mph E3.2 kmh E 2.0 mph3.2 kmh 30.00 in1015.9 mb 0.00 in0.0 mm 0.00 in/hr0.0 mm/hr 0.00 in0.0 mm
06:10 AM 57.1°F13.9°C 41.5°F5.3°C 56% Calm Calm 2.0 mph3.2 kmh 30.00 in1015.9 mb 0.00 in0.0 mm 0.00 in/hr0.0 mm/hr 0.00 in0.0 mm
06:05 AM 57.1°F13.9°C 41.5°F5.3°C 56% 1.0 mph E1.6 kmh E 2.0 mph3.2 kmh 30.00 in1015.9 mb 0.00 in0.0 mm 0.00 in/hr0.0 mm/hr 0.00 in0.0 mm
06:00 AM 57.0°F13.9°C 41.4°F5.2°C 56% Calm Calm 2.0 mph3.2 kmh 30.00 in1015.9 mb 0.00 in0.0 mm 0.00 in/hr0.0 mm/hr 0.00 in0.0 mm
05:55 AM 57.2°F14.0°C 41.6°F5.3°C 56% 1.0 mph E1.6 kmh E 3.0 mph4.8 kmh 30.00 in1015.9 mb 0.00 in0.0 mm 0.00 in/hr0.0 mm/hr 0.00 in0.0 mm
05:50 AM 57.8°F14.3°C 41.7°F5.4°C 55% 1.0 mph E1.6 kmh E 2.0 mph3.2 kmh 30.00 in1015.9 mb 0.00 in0.0 mm 0.00 in/hr0.0 mm/hr 0.00 in0.0 mm
05:45 AM 58.4°F14.7°C 41.8°F5.4°C 54% Calm Calm 5.0 mph8.0 kmh 30.00 in1015.9 mb 0.00 in0.0 mm 0.00 in/hr0.0 mm/hr 0.00 in0.0 mm
05:40 AM 59.1°F15.1°C 41.4°F5.2°C 52% 5.0 mph E8.0 kmh E 5.0 mph8.0 kmh 30.00 in1015.9 mb 0.00 in0.0 mm 0.00 in/hr0.0 mm/hr 0.00 in0.0 mm
05:35 AM 59.4°F15.2°C 41.2°F5.1°C 51% 1.0 mph E1.6 kmh E 1.0 mph1.6 kmh 30.00 in1015.9 mb 0.00 in0.0 mm 0.00 in/hr0.0 mm/hr 0.00 in0.0 mm
05:30 AM 59.5°F15.3°C 41.3°F5.2°C 51% Calm Calm 2.0 mph3.2 kmh 30.00 in1015.9 mb 0.00 in0.0 mm 0.00 in/hr0.0 mm/hr 0.00 in0.0 mm
05:25 AM 59.1°F15.1°C 40.9°F4.9°C 51% Calm Calm 2.0 mph3.2 kmh 29.99 in1015.6 mb 0.00 in0.0 mm 0.00 in/hr0.0 mm/hr 0.00 in0.0 mm
05:20 AM 59.3°F15.2°C 41.6°F5.3°C 52% Calm Calm 2.0 mph3.2 kmh 29.99 in1015.6 mb 0.00 in0.0 mm 0.00 in/hr0.0 mm/hr 0.00 in0.0 mm
05:15 AM 59.1°F15.1°C 41.4°F5.2°C 52% 1.0 mph E1.6 kmh E 2.0 mph3.2 kmh 29.99 in1015.6 mb 0.00 in0.0 mm 0.00 in/hr0.0 mm/hr 0.00 in0.0 mm
05:10 AM 58.9°F14.9°C 41.7°F5.4°C 53% 1.0 mph E1.6 kmh E 1.0 mph1.6 kmh 29.99 in1015.6 mb 0.00 in0.0 mm 0.00 in/hr0.0 mm/hr 0.00 in0.0 mm
05:05 AM 58.4°F14.7°C 41.3°F5.2°C 53% Calm Calm 2.0 mph3.2 kmh 29.99 in1015.6 mb 0.00 in0.0 mm 0.00 in/hr0.0 mm/hr 0.00 in0.0 mm
05:00 AM 58.2°F14.6°C 41.6°F5.3°C 54% Calm Calm 2.0 mph3.2 kmh 29.99 in1015.6 mb 0.00 in0.0 mm 0.00 in/hr0.0 mm/hr 0.00 in0.0 mm
04:55 AM 58.3°F14.6°C 41.7°F5.4°C 54% 1.0 mph E1.6 kmh E 2.0 mph3.2 kmh 29.99 in1015.6 mb 0.00 in0.0 mm 0.00 in/hr0.0 mm/hr 0.00 in0.0 mm
04:50 AM 58.1°F14.5°C 41.5°F5.3°C 54% Calm Calm 2.0 mph3.2 kmh 29.99 in1015.6 mb 0.00 in0.0 mm 0.00 in/hr0.0 mm/hr 0.00 in0.0 mm
04:45 AM 58.0°F14.4°C 41.4°F5.2°C 54% Calm Calm 1.0 mph1.6 kmh 29.99 in1015.6 mb 0.00 in0.0 mm 0.00 in/hr0.0 mm/hr 0.00 in0.0 mm
04:40 AM 57.9°F14.4°C 41.3°F5.2°C 54% Calm Calm 1.0 mph1.6 kmh 29.98 in1015.2 mb 0.00 in0.0 mm 0.00 in/hr0.0 mm/hr 0.00 in0.0 mm
04:35 AM 57.8°F14.3°C 41.2°F5.1°C 54% 1.0 mph E1.6 kmh E 1.0 mph1.6 kmh 29.98 in1015.2 mb 0.00 in0.0 mm 0.00 in/hr0.0 mm/hr 0.00 in0.0 mm
04:30 AM 58.0°F14.4°C 41.4°F5.2°C 54% Calm Calm -- 29.98 in1015.2 mb 0.00 in0.0 mm 0.00 in/hr0.0 mm/hr 0.00 in0.0 mm
04:25 AM 58.5°F14.7°C 41.4°F5.2°C 53% Calm Calm 1.0 mph1.6 kmh 29.98 in1015.2 mb 0.00 in0.0 mm 0.00 in/hr0.0 mm/hr 0.00 in0.0 mm
04:20 AM 58.2°F14.6°C 41.6°F5.3°C 54% Calm Calm 2.0 mph3.2 kmh 29.98 in1015.2 mb 0.00 in0.0 mm 0.00 in/hr0.0 mm/hr 0.00 in0.0 mm
04:15 AM 58.4°F14.7°C 41.3°F5.2°C 53% Calm Calm -- 29.98 in1015.2 mb 0.00 in0.0 mm 0.00 in/hr0.0 mm/hr 0.00 in0.0 mm
04:10 AM 58.6°F14.8°C 41.0°F5.0°C 52% Calm Calm -- 29.98 in1015.2 mb 0.00 in0.0 mm 0.00 in/hr0.0 mm/hr 0.00 in0.0 mm
04:05 AM 59.0°F15.0°C 41.3°F5.2°C 52% Calm Calm -- 29.97 in1014.9 mb 0.00 in0.0 mm 0.00 in/hr0.0 mm/hr 0.00 in0.0 mm
04:00 AM 59.3°F15.2°C 41.1°F5.1°C 51% Calm Calm -- 29.97 in1014.9 mb 0.00 in0.0 mm 0.00 in/hr0.0 mm/hr 0.00 in0.0 mm
03:55 AM 59.6°F15.3°C 40.9°F4.9°C 50% Calm Calm 2.0 mph3.2 kmh 29.98 in1015.2 mb 0.00 in0.0 mm 0.00 in/hr0.0 mm/hr 0.00 in0.0 mm
03:50 AM 59.9°F15.5°C 40.6°F4.8°C 49% 1.0 mph E1.6 kmh E 2.0 mph3.2 kmh 29.98 in1015.2 mb 0.00 in0.0 mm 0.00 in/hr0.0 mm/hr 0.00 in0.0 mm
03:45 AM 59.8°F15.4°C 40.5°F4.7°C 49% Calm Calm 1.0 mph1.6 kmh 29.98 in1015.2 mb 0.00 in0.0 mm 0.00 in/hr0.0 mm/hr 0.00 in0.0 mm
03:40 AM 59.8°F15.4°C 40.5°F4.7°C 49% Calm Calm 2.0 mph3.2 kmh 29.97 in1014.9 mb 0.00 in0.0 mm 0.00 in/hr0.0 mm/hr 0.00 in0.0 mm
03:35 AM 60.1°F15.6°C 40.8°F4.9°C 49% Calm Calm 3.0 mph4.8 kmh 29.97 in1014.9 mb 0.00 in0.0 mm 0.00 in/hr0.0 mm/hr 0.00 in0.0 mm
03:30 AM 60.3°F15.7°C 40.5°F4.7°C 48% 1.0 mph E1.6 kmh E 2.0 mph3.2 kmh 29.98 in1015.2 mb 0.00 in0.0 mm 0.00 in/hr0.0 mm/hr 0.00 in0.0 mm
03:25 AM 60.4°F15.8°C 40.0°F4.4°C 47% Calm Calm 3.0 mph4.8 kmh 29.98 in1015.2 mb 0.00 in0.0 mm 0.00 in/hr0.0 mm/hr 0.00 in0.0 mm
03:20 AM 60.1°F15.6°C 40.3°F4.6°C 48% 1.0 mph E1.6 kmh E 2.0 mph3.2 kmh 29.98 in1015.2 mb 0.00 in0.0 mm 0.00 in/hr0.0 mm/hr 0.00 in0.0 mm
03:15 AM 59.9°F15.5°C 40.6°F4.8°C 49% Calm Calm 1.0 mph1.6 kmh 29.97 in1014.9 mb 0.00 in0.0 mm 0.00 in/hr0.0 mm/hr 0.00 in0.0 mm
03:10 AM 60.0°F15.6°C 40.7°F4.8°C 49% Calm Calm 1.0 mph1.6 kmh 29.97 in1014.9 mb 0.00 in0.0 mm 0.00 in/hr0.0 mm/hr 0.00 in0.0 mm
03:05 AM 59.9°F15.5°C 40.6°F4.8°C 49% Calm Calm 1.0 mph1.6 kmh 29.97 in1014.9 mb 0.00 in0.0 mm 0.00 in/hr0.0 mm/hr 0.00 in0.0 mm
03:00 AM 60.2°F15.7°C 40.9°F4.9°C 49% Calm Calm 1.0 mph1.6 kmh 29.97 in1014.9 mb 0.00 in0.0 mm 0.00 in/hr0.0 mm/hr 0.00 in0.0 mm
02:55 AM 60.9°F16.1°C 40.5°F4.7°C 47% Calm Calm -- 29.97 in1014.9 mb 0.00 in0.0 mm 0.00 in/hr0.0 mm/hr 0.00 in0.0 mm
02:50 AM 61.1°F16.2°C 40.7°F4.8°C 47% Calm Calm 2.0 mph3.2 kmh 29.98 in1015.2 mb 0.00 in0.0 mm 0.00 in/hr0.0 mm/hr 0.00 in0.0 mm
02:45 AM 61.6°F16.4°C 40.6°F4.8°C 46% 1.0 mph E1.6 kmh E 2.0 mph3.2 kmh 29.98 in1015.2 mb 0.00 in0.0 mm 0.00 in/hr0.0 mm/hr 0.00 in0.0 mm
02:40 AM 61.9°F16.6°C 40.3°F4.6°C 45% Calm Calm 2.0 mph3.2 kmh 29.98 in1015.2 mb 0.00 in0.0 mm 0.00 in/hr0.0 mm/hr 0.00 in0.0 mm
02:35 AM 62.3°F16.8°C 40.1°F4.5°C 44% Calm Calm 2.0 mph3.2 kmh 29.98 in1015.2 mb 0.00 in0.0 mm 0.00 in/hr0.0 mm/hr 0.00 in0.0 mm
02:30 AM 62.5°F16.9°C 40.8°F4.9°C 45% Calm Calm 2.0 mph3.2 kmh 29.98 in1015.2 mb 0.00 in0.0 mm 0.00 in/hr0.0 mm/hr 0.00 in0.0 mm
02:25 AM 62.7°F17.1°C 39.8°F4.3°C 43% Calm Calm 2.0 mph3.2 kmh 29.98 in1015.2 mb 0.00 in0.0 mm 0.00 in/hr0.0 mm/hr 0.00 in0.0 mm
02:20 AM 62.1°F16.7°C 40.5°F4.7°C 45% 2.0 mph E3.2 kmh E 3.0 mph4.8 kmh 29.98 in1015.2 mb 0.00 in0.0 mm 0.00 in/hr0.0 mm/hr 0.00 in0.0 mm
02:15 AM 62.2°F16.8°C 40.5°F4.7°C 45% 1.0 mph E1.6 kmh E 3.0 mph4.8 kmh 29.98 in1015.2 mb 0.00 in0.0 mm 0.00 in/hr0.0 mm/hr 0.00 in0.0 mm
02:10 AM 62.0°F16.7°C 40.4°F4.7°C 45% 1.0 mph E1.6 kmh E 2.0 mph3.2 kmh 29.98 in1015.2 mb 0.00 in0.0 mm 0.00 in/hr0.0 mm/hr 0.00 in0.0 mm
02:05 AM 62.5°F16.9°C 40.8°F4.9°C 45% Calm Calm 2.0 mph3.2 kmh 29.98 in1015.2 mb 0.00 in0.0 mm 0.00 in/hr0.0 mm/hr 0.00 in0.0 mm
02:00 AM 62.6°F17.0°C 40.3°F4.6°C 44% 1.0 mph E1.6 kmh E 3.0 mph4.8 kmh 29.98 in1015.2 mb 0.00 in0.0 mm 0.00 in/hr0.0 mm/hr 0.00 in0.0 mm
01:55 AM 62.2°F16.8°C 40.0°F4.4°C 44% Calm Calm 2.0 mph3.2 kmh 29.98 in1015.2 mb 0.00 in0.0 mm 0.00 in/hr0.0 mm/hr 0.00 in0.0 mm
01:50 AM 61.4°F16.3°C 40.9°F4.9°C 47% 1.0 mph E1.6 kmh E 3.0 mph4.8 kmh 29.99 in1015.6 mb 0.00 in0.0 mm 0.00 in/hr0.0 mm/hr 0.00 in0.0 mm
01:45 AM 61.2°F16.2°C 40.8°F4.9°C 47% 2.0 mph E3.2 kmh E 3.0 mph4.8 kmh 29.98 in1015.2 mb 0.00 in0.0 mm 0.00 in/hr0.0 mm/hr 0.00 in0.0 mm
01:40 AM 60.8°F16.0°C 40.9°F4.9°C 48% 2.0 mph E3.2 kmh E 3.0 mph4.8 kmh 29.99 in1015.6 mb 0.00 in0.0 mm 0.00 in/hr0.0 mm/hr 0.00 in0.0 mm
01:35 AM 60.8°F16.0°C 40.9°F4.9°C 48% 2.0 mph E3.2 kmh E 2.0 mph3.2 kmh 29.99 in1015.6 mb 0.00 in0.0 mm 0.00 in/hr0.0 mm/hr 0.00 in0.0 mm
01:30 AM 61.4°F16.3°C 40.9°F4.9°C 47% Calm Calm -- 29.99 in1015.6 mb 0.00 in0.0 mm 0.00 in/hr0.0 mm/hr 0.00 in0.0 mm
01:25 AM 62.3°F16.8°C 41.2°F5.1°C 46% Calm Calm -- 29.99 in1015.6 mb 0.00 in0.0 mm 0.00 in/hr0.0 mm/hr 0.00 in0.0 mm
01:20 AM 63.1°F17.3°C 40.2°F4.6°C 43% Calm Calm 1.0 mph1.6 kmh 29.99 in1015.6 mb 0.00 in0.0 mm 0.00 in/hr0.0 mm/hr 0.00 in0.0 mm
01:15 AM 63.7°F17.6°C 40.1°F4.5°C 42% Calm Calm 2.0 mph3.2 kmh 29.99 in1015.6 mb 0.00 in0.0 mm 0.00 in/hr0.0 mm/hr 0.00 in0.0 mm
01:10 AM 64.2°F17.9°C 40.0°F4.4°C 41% Calm Calm 2.0 mph3.2 kmh 29.99 in1015.6 mb 0.00 in0.0 mm 0.00 in/hr0.0 mm/hr 0.00 in0.0 mm
01:05 AM 64.0°F17.8°C 39.8°F4.3°C 41% Calm Calm 3.0 mph4.8 kmh 29.99 in1015.6 mb 0.00 in0.0 mm 0.00 in/hr0.0 mm/hr 0.00 in0.0 mm
01:00 AM 63.6°F17.6°C 39.4°F4.1°C 41% 1.0 mph E1.6 kmh E 5.0 mph8.0 kmh 29.99 in1015.6 mb 0.00 in0.0 mm 0.00 in/hr0.0 mm/hr 0.00 in0.0 mm
12:55 AM 63.7°F17.6°C 40.1°F4.5°C 42% 3.0 mph E4.8 kmh E 3.0 mph4.8 kmh 29.99 in1015.6 mb 0.00 in0.0 mm 0.00 in/hr0.0 mm/hr 0.00 in0.0 mm
12:50 AM 63.9°F17.7°C 39.7°F4.3°C 41% 2.0 mph E3.2 kmh E 3.0 mph4.8 kmh 29.99 in1015.6 mb 0.00 in0.0 mm 0.00 in/hr0.0 mm/hr 0.00 in0.0 mm
12:45 AM 64.2°F17.9°C 40.0°F4.4°C 41% 2.0 mph E3.2 kmh E 2.0 mph3.2 kmh 29.99 in1015.6 mb 0.00 in0.0 mm 0.00 in/hr0.0 mm/hr 0.00 in0.0 mm
12:40 AM 64.3°F17.9°C 40.0°F4.4°C 41% 2.0 mph E3.2 kmh E 3.0 mph4.8 kmh 29.99 in1015.6 mb 0.00 in0.0 mm 0.00 in/hr0.0 mm/hr 0.00 in0.0 mm
12:35 AM 64.4°F18.0°C 40.1°F4.5°C 41% 1.0 mph E1.6 kmh E 3.0 mph4.8 kmh 29.99 in1015.6 mb 0.00 in0.0 mm 0.00 in/hr0.0 mm/hr 0.00 in0.0 mm
12:30 AM 64.6°F18.1°C 40.3°F4.6°C 41% 2.0 mph E3.2 kmh E 3.0 mph4.8 kmh 29.99 in1015.6 mb 0.00 in0.0 mm 0.00 in/hr0.0 mm/hr 0.00 in0.0 mm
12:25 AM 64.5°F18.1°C 40.2°F4.6°C 41% Calm Calm 2.0 mph3.2 kmh 29.99 in1015.6 mb 0.00 in0.0 mm 0.00 in/hr0.0 mm/hr 0.00 in0.0 mm
12:20 AM 64.3°F17.9°C 40.0°F4.4°C 41% Calm Calm 3.0 mph4.8 kmh 29.99 in1015.6 mb 0.00 in0.0 mm 0.00 in/hr0.0 mm/hr 0.00 in0.0 mm
12:15 AM 64.1°F17.8°C 39.9°F4.4°C 41% Calm Calm 1.0 mph1.6 kmh 29.99 in1015.6 mb 0.00 in0.0 mm 0.00 in/hr0.0 mm/hr 0.00 in0.0 mm
12:10 AM 63.6°F17.6°C 40.6°F4.8°C 43% 1.0 mph E1.6 kmh E 2.0 mph3.2 kmh 29.99 in1015.6 mb 0.00 in0.0 mm 0.00 in/hr0.0 mm/hr 0.00 in0.0 mm
12:05 AM 63.5°F17.5°C 41.1°F5.1°C 44% Calm Calm 3.0 mph4.8 kmh 29.99 in1015.6 mb 0.00 in0.0 mm 0.00 in/hr0.0 mm/hr 0.00 in0.0 mm
12:00 AM 64.0°F17.8°C 41.0°F5.0°C 43% 2.0 mph E3.2 kmh E 3.0 mph4.8 kmh 29.99 in1015.6 mb 0.00 in0.0 mm 0.00 in/hr0.0 mm/hr 0.00 in0.0 mm